PAWI

UTC

Wainwright Airport

Wainwright, Alaska, United States

METAR - Current

PAWI 010753Z AUTO 32008KT 10SM OVC034 02/M04 A2974 RMK AO2 SLP073 T00171039 TSNO $

Observed

Oct 01 07:53 UTC

Flight Rules

VFR

Wind

320° at 8 KTS

Visibility

10 SM

Clouds

  • Overcast at 3,400 ft AGL

Ceiling

Overcast at 3,400 ft AGL

Temperature

2°C=36°F

Dew Point

-4°C=25°F

Humidity

65%

Altimeter

29.74 Hg

Pressure

1007.0 hPa

METAR - Previous

PAWI 010653Z AUTO 33010KT 10SM OVC031 02/M04 A2974 RMK AO2 SLP071 T00171039 TSNO $

Observed

Oct 01 06:53 UTC

Flight Rules

VFR

Wind

330° at 10 KTS

Visibility

10 SM

Clouds

  • Overcast at 3,100 ft AGL

Ceiling

Overcast at 3,100 ft AGL

Temperature

2°C=36°F

Dew Point

-4°C=25°F

Humidity

65%

Altimeter

29.74 Hg

Pressure

1007.0 hPa